Time;durP1;ratioP1;P1;durP2;ratioP2;P2;SDS_P1;SDS_P2;PMS_P1;PMS_P2;Temp;Humidity;BMP_temperature;BMP_pressure;BME280_temperature;BME280_humidity;BME280_pressure;Samples;Min_cycle;Max_cycle;Signal;HPM_P1;HPM_P2
2022/05/17 00:02:03;;;;;;;4.00;2.00;;;;;;;20.95;50.93;99218.16;5087714;28;20056;-73
2022/05/17 00:04:30;;;;;;;3.25;2.03;;;;;;;20.91;51.08;99206.84;5087715;28;20120;-73
2022/05/17 00:06:58;;;;;;;4.22;2.22;;;;;;;20.82;51.60;99218.53;5087785;28;20255;-73
2022/05/17 00:09:27;;;;;;;3.40;2.10;;;;;;;20.80;51.53;99210.63;5087968;28;20040;-73
2022/05/17 00:11:56;;;;;;;5.38;2.78;;;;;;;20.79;52.17;99203.53;5087683;28;20202;-73
2022/05/17 00:14:24;;;;;;;3.65;2.13;;;;;;;19.99;52.24;99106.56;5087567;28;20052;-73
2022/05/17 00:16:52;;;;;;;4.30;2.63;;;;;;;20.64;51.49;99215.84;5087208;28;20056;-73
2022/05/17 00:19:22;;;;;;;16.75;2.47;;;;;;;20.66;51.89;99192.28;5087474;28;20244;-73
2022/05/17 00:21:49;;;;;;;5.05;2.05;;;;;;;20.61;51.54;99217.97;5086210;28;20251;-74
2022/05/17 00:24:18;;;;;;;6.45;2.05;;;;;;;20.66;51.46;99216.53;5087257;28;20056;-73
2022/05/17 00:26:46;;;;;;;4.35;2.30;;;;;;;20.64;51.15;99217.69;5087251;28;20376;-73
2022/05/17 00:29:13;;;;;;;6.60;2.60;;;;;;;20.60;51.55;99214.44;5086840;28;20246;-73
2022/05/17 00:31:42;;;;;;;2.88;1.70;;;;;;;20.63;51.68;99200.69;5087042;28;20102;-73
2022/05/17 00:34:09;;;;;;;6.43;2.38;;;;;;;20.34;51.47;99202.69;5087216;28;20106;-73
2022/05/17 00:36:37;;;;;;;5.35;2.30;;;;;;;20.54;51.47;99203.44;5087153;28;20052;-73
2022/05/17 00:39:05;;;;;;;4.57;2.60;;;;;;;20.25;51.44;99172.16;5087113;28;20102;-73
2022/05/17 00:41:32;;;;;;;4.07;2.22;;;;;;;13.23;51.12;98009.97;5087128;28;20194;-73
2022/05/17 00:46:49;;;;;;;6.80;3.92;;;;;;;20.59;51.44;99207.38;5086132;28;20044;-74
2022/05/17 00:49:25;;;;;;;7.07;3.75;;;;;;;20.61;51.08;99213.44;5086947;28;20053;-74
2022/05/17 00:51:57;;;;;;;5.00;2.65;;;;;;;20.59;51.13;99215.44;5085666;28;20044;-74
2022/05/17 00:54:25;;;;;;;5.85;2.72;;;;;;;20.60;50.95;99216.28;5086832;28;20052;-73
2022/05/17 00:57:00;;;;;;;4.10;2.58;;;;;;;19.59;51.72;99088.91;5086789;28;20102;-73
2022/05/17 00:59:27;;;;;;;4.22;2.30;;;;;;;20.62;50.89;99212.44;5086688;28;20346;-73
2022/05/17 01:01:56;;;;;;;4.32;2.40;;;;;;;20.59;51.22;99209.22;5086305;28;20102;-74
2022/05/17 01:04:25;;;;;;;3.15;2.00;;;;;;;20.59;50.90;99214.59;5086450;28;20040;-73
2022/05/17 01:06:57;;;;;;;5.38;2.40;;;;;;;20.60;51.22;99213.59;5086138;28;20320;-74
2022/05/17 01:09:25;;;;;;;4.55;2.42;;;;;;;19.11;50.94;98977.09;5086606;28;20109;-73
2022/05/17 01:11:52;;;;;;;9.48;3.28;;;;;;;20.67;50.46;99209.28;5086472;28;20244;-73
2022/05/17 01:17:07;;;;;;;7.05;3.05;;;;;;;19.90;51.43;99108.31;5086575;28;20090;-72
2022/05/17 01:19:34;;;;;;;3.40;2.42;;;;;;;19.99;51.17;99161.22;5086237;28;20048;-73
2022/05/17 01:22:03;;;;;;;6.07;2.30;;;;;;;20.39;51.64;99212.03;5086190;28;20320;-73
2022/05/17 01:24:30;;;;;;;4.53;2.50;;;;;;;20.40;50.95;99208.34;5086339;28;20102;-73
2022/05/17 01:27:03;;;;;;;4.60;2.58;;;;;;;20.24;51.35;99167.78;5085870;28;20060;-74
2022/05/17 01:29:38;;;;;;;4.80;1.90;;;;;;;20.46;51.84;99204.19;5085829;28;20052;-74
2022/05/17 01:32:07;;;;;;;3.35;1.98;;;;;;;20.18;51.48;99166.50;5085750;28;20056;-74
2022/05/17 01:34:35;;;;;;;3.75;2.20;;;;;;;20.40;51.63;99207.47;5085738;28;20056;-73
2022/05/17 01:37:06;;;;;;;4.57;2.45;;;;;;;20.40;51.70;99202.94;5086137;28;20049;-73
2022/05/17 01:39:33;;;;;;;5.88;2.28;;;;;;;20.46;51.44;99201.50;5085914;28;20358;-73
2022/05/17 01:42:00;;;;;;;6.10;2.70;;;;;;;20.42;51.36;99205.50;5085944;28;20064;-73
2022/05/17 01:44:27;;;;;;;5.53;2.00;;;;;;;20.43;51.30;99199.09;5085516;28;20056;-73
2022/05/17 01:46:55;;;;;;;4.55;2.63;;;;;;;20.46;51.41;99206.88;5085845;28;20321;-73
2022/05/17 01:49:22;;;;;;;5.60;2.10;;;;;;;20.44;51.59;99204.34;5085717;28;20347;-74
2022/05/17 01:51:49;;;;;;;3.78;2.17;;;;;;;20.47;51.45;99216.66;5085790;28;20121;-74
2022/05/17 01:54:18;;;;;;;5.40;2.00;;;;;;;20.47;52.14;99209.41;5085743;28;20367;-74
2022/05/17 01:56:45;;;;;;;3.83;2.58;;;;;;;20.46;51.70;99204.19;5085427;28;20114;-73
2022/05/17 01:59:13;;;;;;;5.28;2.63;;;;;;;20.40;52.24;99197.56;5085574;28;20122;-73
2022/05/17 02:01:40;;;;;;;4.60;2.22;;;;;;;20.09;53.11;99150.41;5085688;28;20104;-73
2022/05/17 02:04:08;;;;;;;3.30;2.00;;;;;;;20.34;52.46;99191.94;5085258;28;20113;-74
2022/05/17 02:06:35;;;;;;;3.50;2.17;;;;;;;20.33;52.20;99191.09;5085332;28;20060;-73
2022/05/17 02:09:02;;;;;;;4.43;2.28;;;;;;;20.30;52.44;99188.69;5085587;28;20052;-73
2022/05/17 02:11:31;;;;;;;4.72;2.35;;;;;;;20.25;52.61;99190.16;5085261;28;20320;-73
2022/05/17 02:13:58;;;;;;;6.78;1.95;;;;;;;20.19;52.54;99180.78;5085271;28;20082;-73
2022/05/17 02:16:25;;;;;;;5.20;2.20;;;;;;;20.12;52.67;99183.25;5085239;28;20052;-73
2022/05/17 02:18:52;;;;;;;7.18;2.30;;;;;;;20.09;52.68;99175.47;5085563;28;20056;-73
2022/05/17 02:21:19;;;;;;;5.88;2.97;;;;;;;20.09;52.53;99180.00;5085528;28;20259;-73
2022/05/17 02:23:47;;;;;;;4.57;2.67;;;;;;;20.05;52.80;99182.16;5084442;28;20313;-73
2022/05/17 02:26:14;;;;;;;6.00;2.63;;;;;;;20.04;52.65;99183.13;5085193;28;20243;-73
2022/05/17 02:28:43;;;;;;;7.18;2.55;;;;;;;20.08;52.88;99194.44;5084903;28;20312;-74
2022/05/17 02:31:13;;;;;;;4.15;2.58;;;;;;;20.03;53.11;99181.44;5085423;28;20114;-73
2022/05/17 02:33:40;;;;;;;3.40;2.28;;;;;;;19.76;53.09;99130.28;5085412;28;20219;-74
2022/05/17 02:36:08;;;;;;;4.82;2.67;;;;;;;20.04;52.50;99187.66;5085435;28;20056;-73
2022/05/17 02:38:35;;;;;;;3.70;2.22;;;;;;;20.04;53.04;99182.28;5085398;28;20105;-73
2022/05/17 02:41:02;;;;;;;5.38;2.00;;;;;;;20.03;52.55;99177.91;5086149;28;20075;-74
2022/05/17 02:43:30;;;;;;;4.38;2.10;;;;;;;20.01;52.86;99183.44;5088404;28;20045;-74
2022/05/17 02:45:58;;;;;;;5.28;2.30;;;;;;;20.02;53.09;99192.34;5089177;28;20060;-74
2022/05/17 02:48:26;;;;;;;9.27;2.42;;;;;;;20.01;53.13;99186.13;5088737;28;20056;-74
2022/05/17 02:50:53;;;;;;;3.17;2.17;;;;;;;20.00;52.90;99187.13;5087815;28;20057;-73
2022/05/17 02:53:21;;;;;;;5.07;1.92;;;;;;;19.95;53.28;99192.09;5085155;28;20324;-72
2022/05/17 02:55:48;;;;;;;5.82;2.15;;;;;;;19.89;53.04;99199.91;5085128;28;20255;-73
2022/05/17 02:58:16;;;;;;;3.78;1.80;;;;;;;19.85;53.35;99192.13;5084862;28;20110;-73
2022/05/17 03:00:43;;;;;;;3.28;2.00;;;;;;;19.85;52.96;99192.13;5084802;28;20370;-73
2022/05/17 03:03:12;;;;;;;2.80;1.77;;;;;;;19.78;53.52;99190.16;5084773;28;20109;-73
2022/05/17 03:05:39;;;;;;;3.47;2.03;;;;;;;19.75;53.82;99196.66;5084647;28;20329;-73
2022/05/17 03:08:07;;;;;;;4.05;2.47;;;;;;;19.49;53.82;99152.59;5085071;28;20098;-73
2022/05/17 03:10:34;;;;;;;4.20;2.10;;;;;;;19.74;53.55;99204.88;5086754;28;20367;-73
2022/05/17 03:13:01;;;;;;;3.55;2.17;;;;;;;19.63;54.13;99199.69;5088663;28;20113;-73
2022/05/17 03:15:29;;;;;;;3.90;2.03;;;;;;;19.58;55.00;99204.66;5088672;28;20052;-73
2022/05/17 03:17:56;;;;;;;4.25;2.50;;;;;;;19.53;54.85;99221.22;5088274;28;20057;-73
2022/05/17 03:20:25;;;;;;;5.70;2.75;;;;;;;19.41;58.02;99217.00;5088588;28;20060;-73
2022/05/17 03:22:52;;;;;;;3.85;2.47;;;;;;;19.02;58.72;99191.97;5088828;28;20110;-73
2022/05/17 03:25:19;;;;;;;4.47;2.22;;;;;;;18.89;59.73;99201.16;5088480;28;20056;-73
2022/05/17 03:27:47;;;;;;;3.47;2.33;;;;;;;18.92;61.91;99229.56;5088470;28;20378;-73
2022/05/17 03:30:14;;;;;;;3.85;2.20;;;;;;;18.64;59.78;99184.75;5088026;28;20052;-73
2022/05/17 03:32:42;;;;;;;6.85;2.80;;;;;;;18.79;62.08;99240.56;5088084;28;20056;-73
2022/05/17 03:35:10;;;;;;;4.25;2.45;;;;;;;18.72;61.29;99249.31;5088333;28;20110;-73
2022/05/17 03:37:39;;;;;;;4.88;2.70;;;;;;;18.31;63.23;99202.03;5088356;28;20259;-73
2022/05/17 03:40:09;;;;;;;3.60;2.45;;;;;;;18.60;62.09;99251.28;5088138;28;20064;-73
2022/05/17 03:42:37;;;;;;;4.57;2.65;;;;;;;18.36;62.33;99221.25;5087935;28;20064;-73
2022/05/17 03:45:05;;;;;;;5.90;3.08;;;;;;;18.52;61.88;99262.69;5088079;28;20106;-73
2022/05/17 03:47:33;;;;;;;5.75;2.65;;;;;;;18.45;62.53;99256.16;5087785;28;20263;-73
2022/05/17 03:50:00;;;;;;;5.95;2.70;;;;;;;18.55;62.30;99257.06;5087816;28;20056;-73
2022/05/17 03:52:28;;;;;;;4.75;3.20;;;;;;;18.58;62.86;99258.63;5087972;28;20082;-73
2022/05/17 03:54:58;;;;;;;5.63;2.80;;;;;;;18.38;62.53;99212.06;5087668;28;20047;-73
2022/05/17 03:57:26;;;;;;;3.20;2.20;;;;;;;18.56;62.93;99255.22;5087677;28;20049;-73
2022/05/17 03:59:54;;;;;;;10.32;7.15;;;;;;;18.53;63.87;99263.56;5087647;28;20060;-73
2022/05/17 04:02:21;;;;;;;9.77;5.70;;;;;;;18.53;63.45;99256.34;5087853;28;20052;-73
2022/05/17 04:04:53;;;;;;;7.38;4.07;;;;;;;18.58;64.00;99263.97;5087727;28;20304;-73
2022/05/17 04:07:20;;;;;;;5.53;3.45;;;;;;;18.62;62.47;99267.25;5087501;28;20378;-73
2022/05/17 04:09:48;;;;;;;4.18;3.42;;;;;;;18.59;64.20;99261.16;5087883;28;20313;-73
2022/05/17 04:12:16;;;;;;;4.07;2.92;;;;;;;18.26;64.02;99227.44;5087477;28;20325;-73
2022/05/17 04:14:44;;;;;;;4.50;2.92;;;;;;;18.49;63.20;99275.50;5087588;28;20056;-73
2022/05/17 04:17:11;;;;;;;6.00;3.45;;;;;;;18.51;63.26;99269.03;5087299;28;20056;-73
2022/05/17 04:19:39;;;;;;;4.40;3.20;;;;;;;18.56;63.62;99263.28;5086649;28;20048;-73
2022/05/17 04:22:08;;;;;;;4.30;2.88;;;;;;;18.48;63.59;99263.06;5086321;28;20064;-73
2022/05/17 04:24:35;;;;;;;5.28;3.20;;;;;;;18.43;63.56;99270.69;5087344;28;20057;-73
2022/05/17 04:27:03;;;;;;;4.20;2.85;;;;;;;18.37;63.40;99274.75;5087424;28;20056;-73
2022/05/17 04:29:31;;;;;;;3.25;2.45;;;;;;;18.38;63.95;99263.06;5069473;28;20110;-73
2022/05/17 04:31:59;;;;;;;5.03;2.40;;;;;;;18.34;63.34;99250.88;5087618;28;20053;-73
2022/05/17 04:34:26;;;;;;;4.25;2.47;;;;;;;18.30;63.45;99251.31;5087199;28;20118;-73
2022/05/17 04:36:53;;;;;;;4.22;2.40;;;;;;;18.29;63.75;99258.50;5087191;28;20259;-73
2022/05/17 04:39:22;;;;;;;3.88;2.30;;;;;;;18.24;63.88;99250.00;5088223;28;20098;-73
2022/05/17 04:41:49;;;;;;;3.75;2.17;;;;;;;18.17;64.89;99257.75;5087152;28;20186;-73
2022/05/17 04:44:17;;;;;;;3.95;2.22;;;;;;;18.18;64.36;99258.59;5086668;28;20061;-73
2022/05/17 04:46:45;;;;;;;4.90;2.45;;;;;;;18.14;64.99;99249.13;5087060;28;20321;-73
2022/05/17 04:49:13;;;;;;;4.32;2.50;;;;;;;18.10;64.59;99253.06;5087229;28;20247;-73
2022/05/17 04:51:40;;;;;;;4.25;2.30;;;;;;;18.13;64.19;99247.44;5086911;28;20060;-73
2022/05/17 04:54:07;;;;;;;4.85;2.40;;;;;;;18.09;64.23;99246.00;5085722;28;20106;-73
2022/05/17 04:56:35;;;;;;;8.05;2.85;;;;;;;18.04;64.28;99245.56;5086475;28;20312;-73
2022/05/17 04:59:02;;;;;;;5.80;2.35;;;;;;;17.99;65.43;99243.28;5085774;28;20086;-73
2022/05/17 05:01:31;;;;;;;3.88;2.35;;;;;;;17.92;64.78;99242.09;5086261;28;20082;-73
2022/05/17 05:03:59;;;;;;;4.80;3.15;;;;;;;17.88;65.30;99241.53;5086626;28;20052;-73
2022/05/17 05:06:27;;;;;;;6.47;2.72;;;;;;;17.92;64.84;99239.44;5086149;28;20316;-73
2022/05/17 05:08:54;;;;;;;5.32;2.97;;;;;;;17.92;65.24;99250.16;5086486;28;20052;-73
2022/05/17 05:11:22;;;;;;;4.95;3.20;;;;;;;17.95;65.73;99245.38;5086500;28;20056;-73
2022/05/17 05:13:49;;;;;;;6.40;3.22;;;;;;;17.99;64.62;99255.81;5086421;28;20068;-73
2022/05/17 05:16:16;;;;;;;5.22;2.80;;;;;;;17.11;64.47;99116.94;5086082;28;20060;-73
2022/05/17 05:18:43;;;;;;;8.18;2.90;;;;;;;17.95;65.58;99258.78;5086326;28;20308;-73
2022/05/17 05:21:15;;;;;;;4.75;2.70;;;;;;;17.93;66.02;99262.56;5086308;28;20056;-72
2022/05/17 05:23:44;;;;;;;4.55;2.50;;;;;;;17.95;65.60;99265.97;5086312;28;20057;-73
2022/05/17 05:26:13;;;;;;;5.95;3.03;;;;;;;17.99;65.35;99267.41;5086047;28;20251;-73
2022/05/17 05:28:41;;;;;;;5.43;2.83;;;;;;;17.94;65.02;99264.28;5085907;28;20106;-73
2022/05/17 05:31:10;;;;;;;5.95;2.95;;;;;;;17.92;65.53;99277.81;5085609;28;20064;-73
2022/05/17 05:33:39;;;;;;;4.00;2.50;;;;;;;17.87;66.12;99273.84;5085295;28;20078;-73
2022/05/17 05:36:06;;;;;;;3.33;2.35;;;;;;;17.62;66.65;99272.41;5086039;28;20078;-73
2022/05/17 05:38:35;;;;;;;5.90;2.63;;;;;;;16.96;67.69;99157.44;5085591;28;20056;-73
2022/05/17 05:41:03;;;;;;;4.72;2.60;;;;;;;17.72;66.41;99277.84;5085658;28;20056;-73
2022/05/17 05:43:30;;;;;;;5.22;2.65;;;;;;;17.71;66.55;99268.94;5085862;28;20060;-73
2022/05/17 05:45:57;;;;;;;6.07;2.92;;;;;;;17.69;66.77;99270.06;5085822;28;20056;-73
2022/05/17 05:48:24;;;;;;;5.72;3.70;;;;;;;17.64;67.96;99273.13;5086382;28;20060;-73
2022/05/17 05:50:53;;;;;;;6.05;2.97;;;;;;;17.67;66.97;99267.50;5085870;28;20316;-73
2022/05/17 05:53:20;;;;;;;5.50;3.08;;;;;;;17.69;67.44;99262.00;5085746;28;20200;-73
2022/05/17 05:55:57;;;;;;;5.78;2.90;;;;;;;17.72;67.68;99265.28;5085706;28;20105;-73
2022/05/17 05:58:25;;;;;;;5.80;3.20;;;;;;;17.73;67.04;99271.50;5085417;28;20057;-73
2022/05/17 06:00:52;;;;;;;5.05;2.90;;;;;;;17.72;67.77;99270.66;5085970;28;20102;-73
2022/05/17 06:03:19;;;;;;;6.03;3.40;;;;;;;17.76;66.76;99265.88;5085555;28;20189;-73
2022/05/17 06:05:47;;;;;;;5.80;2.90;;;;;;;17.78;66.79;99253.19;5084438;28;20102;-73
2022/05/17 06:08:15;;;;;;;5.30;3.13;;;;;;;16.83;66.83;99115.78;5085588;28;20320;-73
2022/05/17 06:10:43;;;;;;;5.10;2.70;;;;;;;17.76;67.06;99266.72;5085235;28;20053;-73
2022/05/17 06:13:14;;;;;;;4.18;2.67;;;;;;;17.77;67.69;99273.78;5085523;28;20259;-73
2022/05/17 06:15:41;;;;;;;4.60;2.60;;;;;;;17.79;67.18;99255.72;5085642;28;20052;-73
2022/05/17 06:18:10;;;;;;;5.68;3.30;;;;;;;17.83;66.56;99259.84;5085294;28;20056;-73
2022/05/17 06:20:38;;;;;;;7.88;3.60;;;;;;;17.86;66.86;99258.72;5085372;28;20098;-73
2022/05/17 06:23:06;;;;;;;5.28;3.10;;;;;;;17.16;66.76;99161.09;5085470;28;20053;-73
2022/05/17 06:25:34;;;;;;;4.60;3.13;;;;;;;17.92;66.50;99256.38;5085327;28;20098;-73
2022/05/17 06:28:01;;;;;;;4.70;3.10;;;;;;;17.99;66.24;99270.09;5085357;28;20064;-73
2022/05/17 06:30:30;;;;;;;5.03;3.72;;;;;;;17.99;67.14;99264.72;5083961;28;20060;-73
2022/05/17 06:32:58;;;;;;;5.65;3.33;;;;;;;17.45;66.89;99171.16;5085578;28;20056;-73
2022/05/17 06:35:25;;;;;;;3.78;2.70;;;;;;;18.02;67.07;99266.28;5085197;28;20060;-73
2022/05/17 06:37:53;;;;;;;4.22;2.83;;;;;;;18.04;67.12;99269.69;5085208;28;20083;-73
2022/05/17 06:40:20;;;;;;;4.70;3.28;;;;;;;18.01;67.26;99253.88;5085358;28;20118;-73
2022/05/17 06:42:48;;;;;;;5.28;3.10;;;;;;;18.04;66.66;99264.31;5085135;28;20109;-73
2022/05/17 06:45:15;;;;;;;4.38;3.40;;;;;;;18.03;67.74;99265.31;5086670;28;20114;-73
2022/05/17 06:47:44;;;;;;;6.22;4.72;;;;;;;18.05;67.70;99260.66;5089396;28;20113;-73
2022/05/17 06:50:11;;;;;;;6.45;3.63;;;;;;;18.17;67.08;99268.47;5089142;28;20117;-73
2022/05/17 06:52:39;;;;;;;6.75;3.50;;;;;;;18.20;66.90;99262.84;5089180;28;20064;-73
2022/05/17 06:55:07;;;;;;;5.90;3.25;;;;;;;18.21;66.69;99259.19;5089313;28;20056;-73
2022/05/17 06:57:35;;;;;;;6.63;4.20;;;;;;;18.24;66.79;99264.28;5088943;28;20053;-73
2022/05/17 07:00:05;;;;;;;6.60;4.65;;;;;;;18.29;66.80;99269.22;5089031;28;20060;-73
2022/05/17 07:02:32;;;;;;;5.13;3.60;;;;;;;18.28;66.90;99268.38;5088860;28;20106;-73
2022/05/17 07:05:01;;;;;;;6.80;3.92;;;;;;;18.32;66.59;99276.16;5088593;28;20106;-73
2022/05/17 07:07:28;;;;;;;4.78;3.70;;;;;;;18.31;66.66;99272.63;5088709;28;20057;-73
2022/05/17 07:15:25;;;;;;;;;;;;;;;18.27;67.65;99276.56;5089582;28;20142;-73
2022/05/17 07:17:52;;;;;;;6.57;3.95;;;;;;;18.30;66.61;99280.81;5088350;28;19981;-73
2022/05/17 07:20:21;;;;;;;4.68;4.00;;;;;;;18.35;67.08;99274.06;5087651;28;20052;-73
2022/05/17 07:22:48;;;;;;;4.68;3.70;;;;;;;18.42;65.84;99269.00;5088589;28;20053;-73
2022/05/17 07:25:15;;;;;;;8.95;3.80;;;;;;;18.47;66.05;99264.06;5088641;28;20312;-73
2022/05/17 07:27:42;;;;;;;6.72;4.03;;;;;;;18.57;66.12;99268.50;5088474;28;20105;-71
2022/05/17 07:30:11;;;;;;;4.00;3.00;;;;;;;18.67;65.76;99265.00;5088335;28;20127;-73
2022/05/17 07:32:38;;;;;;;6.03;3.63;;;;;;;18.44;66.30;99224.09;5088574;28;20102;-72
2022/05/17 07:35:07;;;;;;;5.57;3.97;;;;;;;18.74;65.42;99261.63;5088421;28;20102;-73
2022/05/17 07:37:36;;;;;;;6.55;4.13;;;;;;;18.77;65.92;99274.75;5088336;28;20066;-73
2022/05/17 07:40:05;;;;;;;4.28;3.05;;;;;;;18.84;65.30;99280.44;5088016;28;20251;-73
2022/05/17 07:42:32;;;;;;;10.30;3.80;;;;;;;18.88;65.04;99276.47;5088344;28;20056;-73
2022/05/17 07:44:59;;;;;;;3.95;3.15;;;;;;;18.85;65.03;99266.88;5088262;28;20064;-73
2022/05/17 07:47:27;;;;;;;6.35;4.00;;;;;;;18.86;65.27;99265.88;5088157;28;20113;-73
2022/05/17 07:49:54;;;;;;;8.23;3.70;;;;;;;18.94;65.02;99256.28;5088131;28;20052;-72
2022/05/17 07:52:21;;;;;;;9.13;4.35;;;;;;;18.97;64.86;99269.41;5088000;28;20076;-73
2022/05/17 07:54:50;;;;;;;5.60;3.65;;;;;;;19.00;65.22;99278.06;5087919;28;20255;-73
2022/05/17 07:57:19;;;;;;;4.53;3.53;;;;;;;19.06;64.57;99273.94;5086575;28;20048;-73
2022/05/17 07:59:47;;;;;;;5.38;4.00;;;;;;;19.09;64.92;99254.88;5087123;28;20044;-73
2022/05/17 08:02:14;;;;;;;5.25;3.55;;;;;;;19.11;64.36;99274.38;5087728;28;20082;-72
2022/05/17 08:04:41;;;;;;;7.00;3.95;;;;;;;19.08;64.40;99269.28;5087113;28;20070;-72
2022/05/17 08:07:09;;;;;;;9.13;4.45;;;;;;;19.03;64.57;99267.03;5087895;28;20052;-73
2022/05/17 08:09:37;;;;;;;7.57;3.60;;;;;;;18.96;64.36;99278.47;5086488;28;20165;-72
2022/05/17 08:12:10;;;;;;;5.80;4.15;;;;;;;18.74;64.81;99226.72;5087359;28;20060;-72
2022/05/17 08:14:40;;;;;;;6.90;4.32;;;;;;;18.96;64.55;99273.94;5087871;28;20115;-72
2022/05/17 08:17:09;;;;;;;6.07;4.95;;;;;;;18.92;64.64;99273.38;5087288;28;20048;-72
2022/05/17 08:19:37;;;;;;;7.88;4.22;;;;;;;18.68;64.20;99235.31;5087575;28;20037;-73
2022/05/17 08:22:05;;;;;;;4.55;3.50;;;;;;;18.98;64.57;99273.81;5087618;28;20223;-73
2022/05/17 08:27:31;;;;;;;6.40;4.88;;;;;;;18.99;63.98;99268.28;5087439;28;20056;-73
2022/05/17 08:30:14;;;;;;;5.90;4.45;;;;;;;18.98;64.95;99284.56;5082163;28;20044;-73
2022/05/17 08:35:38;;;;;;;5.35;4.15;;;;;;;18.79;64.17;99223.63;5087232;28;20071;-73
2022/05/17 08:38:06;;;;;;;5.40;3.80;;;;;;;19.19;64.04;99271.84;5087403;28;20052;-73
2022/05/17 08:40:38;;;;;;;5.85;3.97;;;;;;;19.21;63.48;99276.09;5086853;28;20052;-73
2022/05/17 08:43:15;;;;;;;4.88;3.13;;;;;;;19.12;63.88;99292.19;5086878;28;20069;-72
2022/05/17 08:46:00;;;;;;;5.25;3.20;;;;;;;19.09;64.08;99303.22;5087365;28;20040;-72
2022/05/17 08:48:39;;;;;;;6.13;3.42;;;;;;;19.03;63.67;99298.41;5087070;28;20064;-73
2022/05/17 08:51:08;;;;;;;6.00;3.80;;;;;;;19.01;63.63;99271.69;5087153;28;20060;-73
2022/05/17 08:53:35;;;;;;;4.97;3.47;;;;;;;19.06;63.45;99295.44;5087061;28;20056;-73
2022/05/17 08:56:03;;;;;;;6.57;3.15;;;;;;;19.07;63.04;99283.72;5086957;28;20056;-73
2022/05/17 08:58:34;;;;;;;4.65;3.28;;;;;;;19.04;63.29;99276.78;5086673;28;20044;-73
2022/05/17 09:01:06;;;;;;;3.60;3.05;;;;;;;18.99;63.55;99283.56;5086930;28;20056;-73
2022/05/17 09:03:43;;;;;;;3.88;2.80;;;;;;;18.96;63.41;99273.94;5086983;28;20209;-73
2022/05/17 09:06:21;;;;;;;4.75;3.05;;;;;;;18.96;63.77;99275.78;5086790;28;20052;-74
2022/05/17 09:08:58;;;;;;;4.32;2.92;;;;;;;18.99;63.62;99268.28;5085854;28;20075;-73
2022/05/17 09:11:44;;;;;;;4.57;3.40;;;;;;;19.06;63.17;99280.19;5086466;28;20057;-73
2022/05/17 09:14:17;;;;;;;3.95;2.95;;;;;;;19.08;62.65;99270.13;5086533;28;20041;-73
2022/05/17 09:16:47;;;;;;;4.13;3.22;;;;;;;19.13;62.67;99261.66;5086633;28;20052;-73
2022/05/17 09:19:16;;;;;;;5.28;2.92;;;;;;;19.20;62.28;99279.75;5086551;28;20052;-73
2022/05/17 09:21:44;;;;;;;4.68;3.38;;;;;;;19.19;62.05;99258.41;5086309;28;20052;-73
2022/05/17 09:24:14;;;;;;;4.05;3.33;;;;;;;19.21;62.34;99269.84;5086064;28;20331;-73
2022/05/17 09:27:01;;;;;;;4.38;3.47;;;;;;;19.22;62.07;99276.94;5086146;28;20064;-73
2022/05/17 09:29:36;;;;;;;4.75;3.53;;;;;;;19.13;61.74;99238.34;5086273;28;20049;-73
2022/05/17 09:32:07;;;;;;;5.93;3.15;;;;;;;19.44;61.76;99248.94;5086141;28;20219;-73
2022/05/17 09:34:37;;;;;;;5.10;3.55;;;;;;;19.66;61.08;99256.69;5086151;28;20208;-73
2022/05/17 09:37:08;;;;;;;5.25;3.38;;;;;;;19.87;60.54;99256.53;5086252;28;20051;-74
2022/05/17 09:39:37;;;;;;;4.00;3.42;;;;;;;20.01;60.13;99253.38;5086032;28;20056;-73
2022/05/17 09:42:07;;;;;;;4.95;3.83;;;;;;;20.10;60.23;99248.94;5085902;28;20036;-73
2022/05/17 09:44:42;;;;;;;6.13;3.75;;;;;;;20.13;59.88;99254.03;5085881;28;20036;-73
2022/05/17 09:47:22;;;;;;;4.50;3.80;;;;;;;20.06;59.90;99250.25;5085863;28;20044;-73
2022/05/17 09:52:38;;;;;;;5.90;3.97;;;;;;;19.26;60.23;99188.84;5086323;28;20040;-73
2022/05/17 09:55:12;;;;;;;6.32;4.70;;;;;;;19.84;60.59;99265.75;5085868;28;20052;-74
2022/05/17 09:57:58;;;;;;;6.35;4.43;;;;;;;19.76;61.55;99279.03;5084960;28;20327;-74
2022/05/17 10:00:32;;;;;;;6.13;4.43;;;;;;;19.63;62.82;99262.34;5084715;28;20071;-74
2022/05/17 10:03:01;;;;;;;6.87;4.33;;;;;;;19.59;63.32;99265.47;5084329;28;20267;-73
2022/05/17 10:05:43;;;;;;;4.97;4.45;;;;;;;19.12;63.74;99182.06;5085758;28;20053;-74
2022/05/17 10:08:30;;;;;;;5.78;4.28;;;;;;;19.57;64.62;99256.72;5084415;28;20094;-73
2022/05/17 10:11:05;;;;;;;6.47;4.57;;;;;;;19.57;64.14;99243.28;5085344;28;20056;-73
2022/05/17 10:13:40;;;;;;;6.10;4.25;;;;;;;18.92;63.95;99140.94;5085734;28;20064;-73
2022/05/17 10:16:11;;;;;;;;;;;;;;;19.44;63.92;99248.94;5086181;28;20106;-73
2022/05/17 10:18:45;;;;;;;5.25;4.07;;;;;;;19.48;63.56;99243.13;5085402;28;19924;-73
2022/05/17 10:21:19;;;;;;;4.80;3.75;;;;;;;19.06;63.58;99182.63;5085451;28;20056;-73
2022/05/17 10:23:55;;;;;;;5.38;3.70;;;;;;;19.30;63.94;99182.19;5085504;28;20109;-73
2022/05/17 10:26:30;;;;;;;5.28;4.30;;;;;;;19.68;63.16;99243.94;5085712;28;20056;-74
2022/05/17 10:29:03;;;;;;;5.07;4.18;;;;;;;19.70;62.78;99246.50;5084997;28;20068;-74
2022/05/17 10:31:38;;;;;;;4.13;3.70;;;;;;;19.50;63.13;99189.25;5085558;28;20114;-73
2022/05/17 10:34:18;;;;;;;4.70;3.58;;;;;;;19.73;63.12;99228.22;5085540;28;20053;-73
2022/05/17 10:36:47;;;;;;;17.05;4.45;;;;;;;19.71;62.90;99232.06;5085218;28;20057;-73
2022/05/17 10:39:27;;;;;;;5.43;4.15;;;;;;;19.69;63.36;99244.81;5085334;28;20099;-73
2022/05/17 10:41:56;;;;;;;6.60;4.40;;;;;;;19.66;63.54;99237.03;5085503;28;20301;-74
2022/05/17 10:44:27;;;;;;;6.30;3.83;;;;;;;19.67;64.11;99250.31;5084142;28;20052;-73
2022/05/17 10:47:04;;;;;;;5.57;4.25;;;;;;;19.60;64.17;99253.72;5085507;28;20110;-73
2022/05/17 10:49:45;;;;;;;7.30;3.58;;;;;;;19.62;63.80;99241.84;5085253;28;20110;-73
2022/05/17 10:52:22;;;;;;;8.30;4.70;;;;;;;19.61;63.92;99236.63;5085244;28;20056;-73
2022/05/17 10:55:00;;;;;;;5.57;4.13;;;;;;;19.61;63.51;99248.22;5085177;28;20060;-73
2022/05/17 10:57:35;;;;;;;5.13;3.53;;;;;;;19.52;64.59;99244.56;5085652;28;20301;-74
2022/05/17 11:00:14;;;;;;;5.35;4.00;;;;;;;19.36;65.31;99255.00;5085278;28;20066;-74
2022/05/17 11:03:06;;;;;;;6.70;3.70;;;;;;;19.26;65.70;99256.84;5085301;28;20264;-73
2022/05/17 11:05:41;;;;;;;5.53;4.22;;;;;;;19.11;66.04;99255.56;5085417;28;20064;-73
2022/05/17 11:08:15;;;;;;;8.23;3.53;;;;;;;19.05;66.36;99242.72;5085367;28;20044;-73
2022/05/17 11:10:56;;;;;;;5.15;3.60;;;;;;;18.99;66.94;99257.56;5085377;28;20240;-73
2022/05/17 11:13:28;;;;;;;4.60;3.47;;;;;;;18.97;66.91;99256.84;5085067;28;20040;-73
2022/05/17 11:16:02;;;;;;;6.65;4.00;;;;;;;18.90;67.22;99247.66;5085165;28;20166;-73
2022/05/17 11:18:35;;;;;;;;;;;;;;;18.76;68.70;99248.91;5085864;28;20185;-74
2022/05/17 11:21:09;;;;;;;5.90;3.42;;;;;;;18.68;67.79;99240.69;5084853;28;19916;-74
2022/05/17 11:23:51;;;;;;;5.63;4.13;;;;;;;18.70;69.62;99246.78;5084593;28;20114;-73
2022/05/17 11:26:38;;;;;;;4.55;3.90;;;;;;;18.71;68.98;99253.84;5084411;28;20466;-73
2022/05/17 11:29:19;;;;;;;3.78;3.30;;;;;;;18.68;68.90;99256.81;5084514;28;20056;-73
2022/05/17 11:31:55;;;;;;;5.13;3.92;;;;;;;18.62;69.86;99237.72;5087096;28;20297;-73
2022/05/17 11:34:33;;;;;;;6.20;4.22;;;;;;;18.60;69.90;99235.19;5088396;28;20052;-73
2022/05/17 11:37:03;;;;;;;6.07;3.65;;;;;;;18.65;68.24;99245.50;5087306;28;20313;-73
2022/05/17 11:39:50;;;;;;;8.07;3.63;;;;;;;14.11;69.16;98454.16;5087949;28;20110;-74
2022/05/17 11:42:30;;;;;;;5.38;4.20;;;;;;;18.80;70.16;99226.16;5088235;28;20099;-74
2022/05/17 11:45:17;;;;;;;4.88;3.85;;;;;;;18.90;68.79;99229.69;5088256;28;20320;-73
2022/05/17 11:47:48;;;;;;;5.43;4.20;;;;;;;19.00;69.66;99235.06;5087760;28;20098;-73
2022/05/17 11:50:43;;;;;;;5.75;4.03;;;;;;;19.03;69.32;99231.25;5088201;28;20064;-73
2022/05/17 11:53:30;;;;;;;;;;;;;;;19.00;70.08;99218.97;5088245;28;20106;-73
2022/05/17 11:56:16;;;;;;;5.00;3.92;;;;;;;18.19;69.51;99124.34;5087977;28;19970;-73
2022/05/17 11:58:45;;;;;;;5.78;3.83;;;;;;;19.06;68.20;99225.59;5087960;28;20114;-73
2022/05/17 12:01:44;;;;;;;4.40;3.78;;;;;;;19.08;68.45;99229.00;5087901;28;20064;-73
2022/05/17 12:04:39;;;;;;;6.40;4.43;;;;;;;19.10;68.59;99230.56;5087951;28;20182;-73
2022/05/17 12:07:30;;;;;;;4.50;3.85;;;;;;;19.06;69.02;99233.66;5087331;28;20102;-73
2022/05/17 12:10:00;;;;;;;4.95;3.53;;;;;;;18.99;68.45;99256.69;5087669;28;20113;-73